sensor_id;sensor_type;location;lat;lon;timestamp;pressure;altitude;pressure_sealevel;temperature;humidity
64886;BME280;51514;52.206;5.114;2023-12-20T00:00:34;101628.44;;;8.35;90.88
64886;BME280;51514;52.206;5.114;2023-12-20T00:03:00;101625.38;;;8.28;91.44
64886;BME280;51514;52.206;5.114;2023-12-20T00:05:25;101619.25;;;8.26;91.53
64886;BME280;51514;52.206;5.114;2023-12-20T00:07:50;101626.72;;;8.23;91.16
64886;BME280;51514;52.206;5.114;2023-12-20T00:10:16;101626.97;;;8.20;91.53
64886;BME280;51514;52.206;5.114;2023-12-20T00:12:41;101636.13;;;8.17;91.48
64886;BME280;51514;52.206;5.114;2023-12-20T00:15:07;101622.81;;;8.16;91.81
64886;BME280;51514;52.206;5.114;2023-12-20T00:17:32;101617.56;;;8.14;91.59
64886;BME280;51514;52.206;5.114;2023-12-20T00:19:57;101614.88;;;8.14;91.97
64886;BME280;51514;52.206;5.114;2023-12-20T00:22:23;101606.94;;;8.13;91.66
64886;BME280;51514;52.206;5.114;2023-12-20T00:24:48;101608.31;;;8.07;92.24
64886;BME280;51514;52.206;5.114;2023-12-20T00:27:13;101612.09;;;8.04;92.04
64886;BME280;51514;52.206;5.114;2023-12-20T00:29:39;101621.00;;;8.05;92.13
64886;BME280;51514;52.206;5.114;2023-12-20T00:32:04;101617.47;;;8.04;92.37
64886;BME280;51514;52.206;5.114;2023-12-20T00:34:29;101623.69;;;8.05;92.23
64886;BME280;51514;52.206;5.114;2023-12-20T00:36:55;101621.97;;;8.04;91.71
64886;BME280;51514;52.206;5.114;2023-12-20T00:39:20;101622.97;;;8.03;92.39
64886;BME280;51514;52.206;5.114;2023-12-20T00:41:45;101616.72;;;8.02;92.39
64886;BME280;51514;52.206;5.114;2023-12-20T00:44:11;101615.00;;;8.01;91.78
64886;BME280;51514;52.206;5.114;2023-12-20T00:46:36;101611.34;;;8.02;92.18
64886;BME280;51514;52.206;5.114;2023-12-20T00:49:01;101612.34;;;8.01;92.20
64886;BME280;51514;52.206;5.114;2023-12-20T00:51:27;101613.69;;;8.07;92.50
64886;BME280;51514;52.206;5.114;2023-12-20T00:53:52;101608.31;;;8.07;91.64
64886;BME280;51514;52.206;5.114;2023-12-20T00:56:20;101613.81;;;8.05;91.85
64886;BME280;51514;52.206;5.114;2023-12-20T00:58:45;101608.56;;;8.04;91.50
64886;BME280;51514;52.206;5.114;2023-12-20T01:01:11;101602.44;;;8.02;91.36
64886;BME280;51514;52.206;5.114;2023-12-20T01:03:36;101599.06;;;8.00;92.16
64886;BME280;51514;52.206;5.114;2023-12-20T01:06:01;101601.97;;;7.97;91.78
64886;BME280;51514;52.206;5.114;2023-12-20T01:08:27;101593.19;;;7.95;92.14
64886;BME280;51514;52.206;5.114;2023-12-20T01:10:52;101596.00;;;7.93;92.36
64886;BME280;51514;52.206;5.114;2023-12-20T01:13:17;101596.59;;;7.97;92.32
64886;BME280;51514;52.206;5.114;2023-12-20T01:15:43;101611.13;;;8.05;92.57
64886;BME280;51514;52.206;5.114;2023-12-20T01:18:08;101611.47;;;8.12;92.34
64886;BME280;51514;52.206;5.114;2023-12-20T01:20:33;101610.97;;;8.18;92.64
64886;BME280;51514;52.206;5.114;2023-12-20T01:22:59;101618.31;;;8.16;92.29
64886;BME280;51514;52.206;5.114;2023-12-20T01:25:24;101613.78;;;8.17;92.08
64886;BME280;51514;52.206;5.114;2023-12-20T01:27:50;101611.22;;;8.15;92.13
64886;BME280;51514;52.206;5.114;2023-12-20T01:30:15;101610.25;;;8.16;92.28
64886;BME280;51514;52.206;5.114;2023-12-20T01:32:40;101610.13;;;8.18;92.36
64886;BME280;51514;52.206;5.114;2023-12-20T01:35:06;101600.34;;;8.17;92.44
64886;BME280;51514;52.206;5.114;2023-12-20T01:37:31;101600.25;;;8.18;92.01
64886;BME280;51514;52.206;5.114;2023-12-20T01:39:57;101608.28;;;8.18;92.07
64886;BME280;51514;52.206;5.114;2023-12-20T01:42:22;101608.19;;;8.20;92.04
64886;BME280;51514;52.206;5.114;2023-12-20T01:44:48;101601.94;;;8.19;92.24
64886;BME280;51514;52.206;5.114;2023-12-20T01:47:14;101605.72;;;8.17;91.93
64886;BME280;51514;52.206;5.114;2023-12-20T01:49:39;101599.50;;;8.16;91.76
64886;BME280;51514;52.206;5.114;2023-12-20T01:52:05;101592.91;;;8.20;92.21
64886;BME280;51514;52.206;5.114;2023-12-20T01:54:31;101600.00;;;8.21;91.64
64886;BME280;51514;52.206;5.114;2023-12-20T01:56:56;101590.94;;;8.22;91.74
64886;BME280;51514;52.206;5.114;2023-12-20T01:59:22;101592.41;;;8.26;91.61
64886;BME280;51514;52.206;5.114;2023-12-20T02:01:47;101593.88;;;8.30;91.65
64886;BME280;51514;52.206;5.114;2023-12-20T02:04:13;101588.97;;;8.35;91.21
64886;BME280;51514;52.206;5.114;2023-12-20T02:06:40;101596.81;;;8.38;91.54
64886;BME280;51514;52.206;5.114;2023-12-20T02:09:05;101603.03;;;8.39;91.26
64886;BME280;51514;52.206;5.114;2023-12-20T02:11:30;101601.19;;;8.39;91.04
64886;BME280;51514;52.206;5.114;2023-12-20T02:13:56;101604.63;;;8.41;90.77
64886;BME280;51514;52.206;5.114;2023-12-20T02:16:22;101596.81;;;8.38;90.94
64886;BME280;51514;52.206;5.114;2023-12-20T02:18:47;101592.16;;;8.40;90.35
64886;BME280;51514;52.206;5.114;2023-12-20T02:21:12;101592.28;;;8.39;91.10
64886;BME280;51514;52.206;5.114;2023-12-20T02:23:38;101588.63;;;8.40;91.21
64886;BME280;51514;52.206;5.114;2023-12-20T02:26:04;101587.97;;;8.48;91.07
64886;BME280;51514;52.206;5.114;2023-12-20T02:28:30;101582.22;;;8.52;90.62
64886;BME280;51514;52.206;5.114;2023-12-20T02:30:57;101575.72;;;8.55;90.55
64886;BME280;51514;52.206;5.114;2023-12-20T02:33:22;101579.16;;;8.57;90.68
64886;BME280;51514;52.206;5.114;2023-12-20T02:35:47;101571.09;;;8.57;90.49
64886;BME280;51514;52.206;5.114;2023-12-20T02:38:13;101573.53;;;8.60;90.15
64886;BME280;51514;52.206;5.114;2023-12-20T02:40:38;101582.81;;;8.56;89.94
64886;BME280;51514;52.206;5.114;2023-12-20T02:43:03;101575.47;;;8.58;89.91
64886;BME280;51514;52.206;5.114;2023-12-20T02:45:28;101573.75;;;8.57;89.40
64886;BME280;51514;52.206;5.114;2023-12-20T02:47:54;101565.47;;;8.60;89.88
64886;BME280;51514;52.206;5.114;2023-12-20T02:50:19;101580.34;;;8.64;89.44
64886;BME280;51514;52.206;5.114;2023-12-20T02:52:45;101572.41;;;8.62;89.16
64886;BME280;51514;52.206;5.114;2023-12-20T02:55:11;101564.34;;;8.62;89.24
64886;BME280;51514;52.206;5.114;2023-12-20T02:57:36;101572.28;;;8.64;89.75
64886;BME280;51514;52.206;5.114;2023-12-20T03:00:02;101570.59;;;8.63;89.11
64886;BME280;51514;52.206;5.114;2023-12-20T03:02:27;101566.19;;;8.62;88.69
64886;BME280;51514;52.206;5.114;2023-12-20T03:04:53;101560.19;;;8.58;89.27
64886;BME280;51514;52.206;5.114;2023-12-20T03:07:19;101561.06;;;8.59;89.00
64886;BME280;51514;52.206;5.114;2023-12-20T03:09:44;101559.84;;;8.63;89.32
64886;BME280;51514;52.206;5.114;2023-12-20T03:12:10;101559.56;;;8.66;88.86
64886;BME280;51514;52.206;5.114;2023-12-20T03:14:35;101561.00;;;8.70;88.60
64886;BME280;51514;52.206;5.114;2023-12-20T03:17:00;101553.69;;;8.72;88.16
64886;BME280;51514;52.206;5.114;2023-12-20T03:19:26;101549.03;;;8.74;87.78
64886;BME280;51514;52.206;5.114;2023-12-20T03:21:51;101539.13;;;8.74;87.79
64886;BME280;51514;52.206;5.114;2023-12-20T03:24:18;101545.00;;;8.68;86.97
64886;BME280;51514;52.206;5.114;2023-12-20T03:26:44;101547.91;;;8.76;87.30
64886;BME280;51514;52.206;5.114;2023-12-20T03:29:09;101556.63;;;8.69;87.16
64886;BME280;51514;52.206;5.114;2023-12-20T03:31:34;101539.97;;;8.75;87.71
64886;BME280;51514;52.206;5.114;2023-12-20T03:34:00;101536.56;;;8.73;87.36
64886;BME280;51514;52.206;5.114;2023-12-20T03:36:25;101547.81;;;8.67;87.06
64886;BME280;51514;52.206;5.114;2023-12-20T03:38:50;101542.00;;;8.62;87.27
64886;BME280;51514;52.206;5.114;2023-12-20T03:41:15;101551.66;;;8.64;87.20
64886;BME280;51514;52.206;5.114;2023-12-20T03:43:41;101553.19;;;8.67;87.09
64886;BME280;51514;52.206;5.114;2023-12-20T03:46:08;101552.50;;;8.65;86.67
64886;BME280;51514;52.206;5.114;2023-12-20T03:48:33;101556.88;;;8.66;86.70
64886;BME280;51514;52.206;5.114;2023-12-20T03:50:59;101560.56;;;8.65;87.15
64886;BME280;51514;52.206;5.114;2023-12-20T03:53:24;101555.19;;;8.65;86.84
64886;BME280;51514;52.206;5.114;2023-12-20T03:55:49;101566.50;;;8.68;86.91
64886;BME280;51514;52.206;5.114;2023-12-20T03:58:15;101564.69;;;8.69;86.73
64886;BME280;51514;52.206;5.114;2023-12-20T04:00:40;101556.38;;;8.72;86.42
64886;BME280;51514;52.206;5.114;2023-12-20T04:03:05;101553.69;;;8.72;87.50
64886;BME280;51514;52.206;5.114;2023-12-20T04:05:31;101547.91;;;8.76;86.93
64886;BME280;51514;52.206;5.114;2023-12-20T04:07:56;101538.84;;;8.77;86.71
64886;BME280;51514;52.206;5.114;2023-12-20T04:10:21;101536.03;;;8.79;86.21
64886;BME280;51514;52.206;5.114;2023-12-20T04:12:47;101539.44;;;8.81;86.20
64886;BME280;51514;52.206;5.114;2023-12-20T04:15:12;101533.22;;;8.81;86.35
64886;BME280;51514;52.206;5.114;2023-12-20T04:17:37;101531.84;;;8.86;85.82
64886;BME280;51514;52.206;5.114;2023-12-20T04:20:03;101545.03;;;8.89;86.10
64886;BME280;51514;52.206;5.114;2023-12-20T04:22:29;101539.25;;;8.94;86.00
64886;BME280;51514;52.206;5.114;2023-12-20T04:24:54;101524.53;;;8.98;85.47
64886;BME280;51514;52.206;5.114;2023-12-20T04:27:19;101526.13;;;9.00;85.52
64886;BME280;51514;52.206;5.114;2023-12-20T04:29:45;101517.94;;;9.02;85.44
64886;BME280;51514;52.206;5.114;2023-12-20T04:32:10;101528.25;;;8.97;85.51
64886;BME280;51514;52.206;5.114;2023-12-20T04:34:36;101536.44;;;8.95;85.63
64886;BME280;51514;52.206;5.114;2023-12-20T04:37:01;101527.22;;;8.98;85.80
64886;BME280;51514;52.206;5.114;2023-12-20T04:39:27;101530.53;;;9.01;85.74
64886;BME280;51514;52.206;5.114;2023-12-20T04:41:52;101533.09;;;9.03;85.65
64886;BME280;51514;52.206;5.114;2023-12-20T04:44:18;101523.50;;;9.10;85.74
64886;BME280;51514;52.206;5.114;2023-12-20T04:46:43;101526.78;;;9.13;85.76
64886;BME280;51514;52.206;5.114;2023-12-20T04:49:09;101523.09;;;9.14;85.67
64886;BME280;51514;52.206;5.114;2023-12-20T04:51:35;101522.13;;;9.15;85.42
64886;BME280;51514;52.206;5.114;2023-12-20T04:54:01;101517.34;;;9.19;85.35
64886;BME280;51514;52.206;5.114;2023-12-20T04:56:28;101518.16;;;9.20;85.38
64886;BME280;51514;52.206;5.114;2023-12-20T04:58:53;101515.63;;;9.18;85.15
64886;BME280;51514;52.206;5.114;2023-12-20T05:01:19;101513.63;;;9.20;84.78
64886;BME280;51514;52.206;5.114;2023-12-20T05:03:44;101508.25;;;9.20;85.14
64886;BME280;51514;52.206;5.114;2023-12-20T05:06:10;101513.38;;;9.23;84.95
64886;BME280;51514;52.206;5.114;2023-12-20T05:08:35;101528.94;;;9.20;85.00
64886;BME280;51514;52.206;5.114;2023-12-20T05:11:00;101516.88;;;9.14;84.53
64886;BME280;51514;52.206;5.114;2023-12-20T05:13:26;101527.25;;;9.19;84.25
64886;BME280;51514;52.206;5.114;2023-12-20T05:15:51;101520.72;;;9.21;84.35
64886;BME280;51514;52.206;5.114;2023-12-20T05:18:17;101526.97;;;9.22;84.21
64886;BME280;51514;52.206;5.114;2023-12-20T05:20:42;101529.66;;;9.22;84.35
64886;BME280;51514;52.206;5.114;2023-12-20T05:23:07;101531.63;;;9.20;83.81
64886;BME280;51514;52.206;5.114;2023-12-20T05:25:33;101525.25;;;9.21;84.00
64886;BME280;51514;52.206;5.114;2023-12-20T05:27:58;101524.28;;;9.22;84.12
64886;BME280;51514;52.206;5.114;2023-12-20T05:30:24;101525.00;;;9.24;83.97
64886;BME280;51514;52.206;5.114;2023-12-20T05:32:49;101524.13;;;9.23;84.07
64886;BME280;51514;52.206;5.114;2023-12-20T05:35:14;101508.00;;;9.23;84.35
64886;BME280;51514;52.206;5.114;2023-12-20T05:37:40;101506.16;;;9.24;84.01
64886;BME280;51514;52.206;5.114;2023-12-20T05:40:06;101505.19;;;9.25;83.80
64886;BME280;51514;52.206;5.114;2023-12-20T05:42:35;101511.41;;;9.25;83.97
64886;BME280;51514;52.206;5.114;2023-12-20T05:45:00;101510.31;;;9.28;83.92
64886;BME280;51514;52.206;5.114;2023-12-20T05:47:25;101503.22;;;9.27;84.45
64886;BME280;51514;52.206;5.114;2023-12-20T05:49:51;101501.63;;;9.24;83.92
64886;BME280;51514;52.206;5.114;2023-12-20T05:52:16;101510.31;;;9.28;83.54
64886;BME280;51514;52.206;5.114;2023-12-20T05:54:42;101513.00;;;9.28;83.90
64886;BME280;51514;52.206;5.114;2023-12-20T05:57:07;101504.63;;;9.31;84.10
64886;BME280;51514;52.206;5.114;2023-12-20T05:59:32;101508.34;;;9.30;83.96
64886;BME280;51514;52.206;5.114;2023-12-20T06:01:58;101501.06;;;9.30;83.75
64886;BME280;51514;52.206;5.114;2023-12-20T06:04:23;101511.72;;;9.32;84.09
64886;BME280;51514;52.206;5.114;2023-12-20T06:06:48;101505.63;;;9.30;84.30
64886;BME280;51514;52.206;5.114;2023-12-20T06:09:13;101515.38;;;9.31;84.01
64886;BME280;51514;52.206;5.114;2023-12-20T06:11:40;101505.91;;;9.27;84.15
64886;BME280;51514;52.206;5.114;2023-12-20T06:14:06;101498.00;;;9.35;83.53
64886;BME280;51514;52.206;5.114;2023-12-20T06:16:31;101509.50;;;9.37;83.43
64886;BME280;51514;52.206;5.114;2023-12-20T06:18:56;101500.44;;;9.38;83.71
64886;BME280;51514;52.206;5.114;2023-12-20T06:21:22;101512.59;;;9.42;83.92
64886;BME280;51514;52.206;5.114;2023-12-20T06:23:47;101496.75;;;9.39;83.83
64886;BME280;51514;52.206;5.114;2023-12-20T06:26:12;101501.53;;;9.35;83.95
64886;BME280;51514;52.206;5.114;2023-12-20T06:28:38;101503.13;;;9.38;83.54
64886;BME280;51514;52.206;5.114;2023-12-20T06:31:03;101505.56;;;9.41;83.59
64886;BME280;51514;52.206;5.114;2023-12-20T06:33:29;101500.00;;;9.42;83.90
64886;BME280;51514;52.206;5.114;2023-12-20T06:35:56;101500.16;;;9.41;83.83
64886;BME280;51514;52.206;5.114;2023-12-20T06:38:21;101502.00;;;9.40;83.86
64886;BME280;51514;52.206;5.114;2023-12-20T06:40:46;101502.56;;;9.44;83.89
64886;BME280;51514;52.206;5.114;2023-12-20T06:43:12;101504.28;;;9.45;83.79
64886;BME280;51514;52.206;5.114;2023-12-20T06:45:38;101499.75;;;9.45;83.74
64886;BME280;51514;52.206;5.114;2023-12-20T06:48:04;101494.22;;;9.47;83.89
64886;BME280;51514;52.206;5.114;2023-12-20T06:50:29;101495.94;;;9.48;83.74
64886;BME280;51514;52.206;5.114;2023-12-20T06:52:55;101495.34;;;9.44;83.79
64886;BME280;51514;52.206;5.114;2023-12-20T06:55:20;101497.78;;;9.47;83.43
64886;BME280;51514;52.206;5.114;2023-12-20T06:57:45;101491.53;;;9.47;83.74
64886;BME280;51514;52.206;5.114;2023-12-20T07:00:11;101489.56;;;9.49;83.34
64886;BME280;51514;52.206;5.114;2023-12-20T07:02:37;101494.09;;;9.48;83.47
64886;BME280;51514;52.206;5.114;2023-12-20T07:05:03;101501.31;;;9.48;83.57
64886;BME280;51514;52.206;5.114;2023-12-20T07:07:29;101496.19;;;9.45;83.73
64886;BME280;51514;52.206;5.114;2023-12-20T07:09:54;101487.72;;;9.49;83.39
64886;BME280;51514;52.206;5.114;2023-12-20T07:12:20;101490.28;;;9.51;83.64
64886;BME280;51514;52.206;5.114;2023-12-20T07:14:46;101491.97;;;9.52;83.06
64886;BME280;51514;52.206;5.114;2023-12-20T07:17:11;101492.81;;;9.52;83.41
64886;BME280;51514;52.206;5.114;2023-12-20T07:19:39;101480.94;;;9.55;83.26
64886;BME280;51514;52.206;5.114;2023-12-20T07:22:05;101479.53;;;9.51;83.34
64886;BME280;51514;52.206;5.114;2023-12-20T07:24:31;101480.06;;;9.55;83.12
64886;BME280;51514;52.206;5.114;2023-12-20T07:26:56;101473.00;;;9.53;83.52
64886;BME280;51514;52.206;5.114;2023-12-20T07:29:22;101472.13;;;9.53;83.57
64886;BME280;51514;52.206;5.114;2023-12-20T07:31:47;101454.88;;;9.56;83.17
64886;BME280;51514;52.206;5.114;2023-12-20T07:34:12;101471.88;;;9.56;83.44
64886;BME280;51514;52.206;5.114;2023-12-20T07:36:37;101459.25;;;9.57;83.81
64886;BME280;51514;52.206;5.114;2023-12-20T07:39:03;101470.88;;;9.57;83.46
64886;BME280;51514;52.206;5.114;2023-12-20T07:41:28;101476.00;;;9.60;83.49
64886;BME280;51514;52.206;5.114;2023-12-20T07:43:54;101482.25;;;9.61;83.56
64886;BME280;51514;52.206;5.114;2023-12-20T07:46:20;101490.97;;;9.53;83.30
64886;BME280;51514;52.206;5.114;2023-12-20T07:48:47;101499.50;;;9.58;83.44
64886;BME280;51514;52.206;5.114;2023-12-20T07:51:13;101498.41;;;9.61;83.67
64886;BME280;51514;52.206;5.114;2023-12-20T07:53:38;101491.16;;;9.61;84.17
64886;BME280;51514;52.206;5.114;2023-12-20T07:56:16;101492.88;;;9.62;83.68
64886;BME280;51514;52.206;5.114;2023-12-20T07:58:41;101493.69;;;9.63;83.56
64886;BME280;51514;52.206;5.114;2023-12-20T08:01:06;101508.75;;;9.65;83.68
64886;BME280;51514;52.206;5.114;2023-12-20T08:03:32;101507.63;;;9.68;83.73
64886;BME280;51514;52.206;5.114;2023-12-20T08:05:57;101508.47;;;9.68;83.46
64886;BME280;51514;52.206;5.114;2023-12-20T08:08:25;101507.50;;;9.69;83.46
64886;BME280;51514;52.206;5.114;2023-12-20T08:10:50;101503.81;;;9.70;83.36
64886;BME280;51514;52.206;5.114;2023-12-20T08:13:15;101510.91;;;9.71;83.34
64886;BME280;51514;52.206;5.114;2023-12-20T08:15:41;101517.00;;;9.73;82.96
64886;BME280;51514;52.206;5.114;2023-12-20T08:18:06;101502.53;;;9.74;82.79
64886;BME280;51514;52.206;5.114;2023-12-20T08:20:31;101504.94;;;9.77;82.90
64886;BME280;51514;52.206;5.114;2023-12-20T08:22:57;101504.81;;;9.79;82.43
64886;BME280;51514;52.206;5.114;2023-12-20T08:25:22;101504.56;;;9.82;82.55
64886;BME280;51514;52.206;5.114;2023-12-20T08:27:47;101498.88;;;9.85;82.64
64886;BME280;51514;52.206;5.114;2023-12-20T08:30:13;101486.97;;;9.87;82.66
64886;BME280;51514;52.206;5.114;2023-12-20T08:32:38;101489.41;;;9.91;82.06
64886;BME280;51514;52.206;5.114;2023-12-20T08:35:04;101482.16;;;9.91;82.55
64886;BME280;51514;52.206;5.114;2023-12-20T08:37:29;101490.66;;;9.86;82.65
64886;BME280;51514;52.206;5.114;2023-12-20T08:39:55;101490.38;;;9.89;82.47
64886;BME280;51514;52.206;5.114;2023-12-20T08:42:21;101487.56;;;9.91;82.80
64886;BME280;51514;52.206;5.114;2023-12-20T08:44:46;101488.41;;;9.92;82.46
64886;BME280;51514;52.206;5.114;2023-12-20T08:47:11;101511.66;;;9.93;82.68
64886;BME280;51514;52.206;5.114;2023-12-20T08:49:39;101499.91;;;9.94;82.65
64886;BME280;51514;52.206;5.114;2023-12-20T08:52:04;101500.03;;;9.92;82.98
64886;BME280;51514;52.206;5.114;2023-12-20T08:54:30;101498.06;;;9.94;82.92
64886;BME280;51514;52.206;5.114;2023-12-20T08:56:55;101497.63;;;9.99;82.64
64886;BME280;51514;52.206;5.114;2023-12-20T08:59:20;101497.50;;;10.00;82.78
64886;BME280;51514;52.206;5.114;2023-12-20T09:01:46;101495.53;;;10.02;82.90
64886;BME280;51514;52.206;5.114;2023-12-20T09:04:13;101493.53;;;10.04;83.16
64886;BME280;51514;52.206;5.114;2023-12-20T09:06:38;101495.38;;;10.04;83.12
64886;BME280;51514;52.206;5.114;2023-12-20T09:09:03;101483.63;;;10.05;83.24
64886;BME280;51514;52.206;5.114;2023-12-20T09:11:29;101498.50;;;10.09;82.99
64886;BME280;51514;52.206;5.114;2023-12-20T09:13:54;101483.31;;;10.08;82.62
64886;BME280;51514;52.206;5.114;2023-12-20T09:16:19;101487.44;;;10.12;82.49
64886;BME280;51514;52.206;5.114;2023-12-20T09:18:45;101487.19;;;10.15;82.65
64886;BME280;51514;52.206;5.114;2023-12-20T09:21:10;101485.34;;;10.15;82.43
64886;BME280;51514;52.206;5.114;2023-12-20T09:23:35;101482.22;;;10.20;82.04
64886;BME280;51514;52.206;5.114;2023-12-20T09:26:02;101479.97;;;10.25;81.93
64886;BME280;51514;52.206;5.114;2023-12-20T09:28:27;101491.31;;;10.29;81.61
64886;BME280;51514;52.206;5.114;2023-12-20T09:30:53;101486.78;;;10.29;81.75
64886;BME280;51514;52.206;5.114;2023-12-20T09:33:18;101483.09;;;10.30;81.30
64886;BME280;51514;52.206;5.114;2023-12-20T09:35:43;101490.50;;;10.38;81.44
64886;BME280;51514;52.206;5.114;2023-12-20T09:38:09;101491.03;;;10.41;80.79
64886;BME280;51514;52.206;5.114;2023-12-20T09:40:34;101483.66;;;10.43;81.11
64886;BME280;51514;52.206;5.114;2023-12-20T09:43:10;101488.06;;;10.44;80.89
64886;BME280;51514;52.206;5.114;2023-12-20T09:45:35;101487.63;;;10.39;80.77
64886;BME280;51514;52.206;5.114;2023-12-20T09:48:01;101492.47;;;10.45;80.60
64886;BME280;51514;52.206;5.114;2023-12-20T09:50:30;101502.13;;;10.48;80.61
64886;BME280;51514;52.206;5.114;2023-12-20T09:52:57;101496.41;;;10.51;80.45
64886;BME280;51514;52.206;5.114;2023-12-20T09:55:24;101502.41;;;10.54;80.41
64886;BME280;51514;52.206;5.114;2023-12-20T09:57:50;101509.75;;;10.52;80.22
64886;BME280;51514;52.206;5.114;2023-12-20T10:00:15;101509.50;;;10.55;80.43
64886;BME280;51514;52.206;5.114;2023-12-20T10:02:48;101510.47;;;10.54;80.21
64886;BME280;51514;52.206;5.114;2023-12-20T10:05:16;101506.34;;;10.60;79.95
64886;BME280;51514;52.206;5.114;2023-12-20T10:07:46;101504.50;;;10.60;80.16
64886;BME280;51514;52.206;5.114;2023-12-20T10:10:13;101505.22;;;10.63;79.94
64886;BME280;51514;52.206;5.114;2023-12-20T10:12:38;101506.06;;;10.63;80.24
64886;BME280;51514;52.206;5.114;2023-12-20T10:15:05;101509.22;;;10.68;80.04
64886;BME280;51514;52.206;5.114;2023-12-20T10:17:31;101503.81;;;10.68;79.78
64886;BME280;51514;52.206;5.114;2023-12-20T10:19:57;101502.81;;;10.69;79.99
64886;BME280;51514;52.206;5.114;2023-12-20T10:22:23;101500.66;;;10.73;79.72
64886;BME280;51514;52.206;5.114;2023-12-20T10:24:48;101503.69;;;10.70;80.17
64886;BME280;51514;52.206;5.114;2023-12-20T10:27:13;101500.97;;;10.70;79.53
64886;BME280;51514;52.206;5.114;2023-12-20T10:29:39;101496.97;;;10.74;79.51
64886;BME280;51514;52.206;5.114;2023-12-20T10:32:26;101483.66;;;10.63;78.79
64886;BME280;51514;52.206;5.114;2023-12-20T10:34:53;101495.56;;;10.79;78.71
64886;BME280;51514;52.206;5.114;2023-12-20T10:37:19;101484.75;;;10.89;78.12
64886;BME280;51514;52.206;5.114;2023-12-20T10:39:49;101480.00;;;11.10;77.38
64886;BME280;51514;52.206;5.114;2023-12-20T10:42:16;101477.03;;;11.13;77.46
64886;BME280;51514;52.206;5.114;2023-12-20T10:44:42;101484.00;;;11.06;77.80
64886;BME280;51514;52.206;5.114;2023-12-20T10:47:09;101477.63;;;10.97;77.70
64886;BME280;51514;52.206;5.114;2023-12-20T10:49:37;101472.81;;;11.01;77.94
64886;BME280;51514;52.206;5.114;2023-12-20T10:52:03;101464.00;;;10.99;78.25
64886;BME280;51514;52.206;5.114;2023-12-20T10:54:30;101470.28;;;10.90;78.29
64886;BME280;51514;52.206;5.114;2023-12-20T10:56:57;101464.00;;;10.99;78.70
64886;BME280;51514;52.206;5.114;2023-12-20T10:59:24;101462.75;;;11.30;77.67
64886;BME280;51514;52.206;5.114;2023-12-20T11:01:50;101457.19;;;11.59;77.13
64886;BME280;51514;52.206;5.114;2023-12-20T11:04:28;101467.94;;;11.79;76.62
64886;BME280;51514;52.206;5.114;2023-12-20T11:07:15;101469.03;;;11.86;76.11
64886;BME280;51514;52.206;5.114;2023-12-20T11:09:54;101464.00;;;11.91;75.14
64886;BME280;51514;52.206;5.114;2023-12-20T11:12:34;101468.19;;;11.85;74.47
64886;BME280;51514;52.206;5.114;2023-12-20T11:15:03;101463.56;;;11.95;74.74
64886;BME280;51514;52.206;5.114;2023-12-20T11:17:29;101460.72;;;11.97;74.09
64886;BME280;51514;52.206;5.114;2023-12-20T11:22:25;101449.97;;;11.87;73.35
64886;BME280;51514;52.206;5.114;2023-12-20T11:24:52;101457.56;;;11.74;73.58
64886;BME280;51514;52.206;5.114;2023-12-20T11:27:19;101446.47;;;11.77;74.11
64886;BME280;51514;52.206;5.114;2023-12-20T11:29:51;101457.69;;;11.73;73.99
64886;BME280;51514;52.206;5.114;2023-12-20T11:35:16;101444.47;;;11.52;74.22
64886;BME280;51514;52.206;5.114;2023-12-20T11:37:42;101459.16;;;11.67;74.63
64886;BME280;51514;52.206;5.114;2023-12-20T11:40:14;101446.94;;;11.63;74.32
64886;BME280;51514;52.206;5.114;2023-12-20T11:42:41;101443.53;;;11.61;74.13
64886;BME280;51514;52.206;5.114;2023-12-20T11:45:10;101438.50;;;11.48;73.86
64886;BME280;51514;52.206;5.114;2023-12-20T11:47:35;101434.31;;;11.63;74.34
64886;BME280;51514;52.206;5.114;2023-12-20T11:50:01;101423.34;;;11.65;74.95
64886;BME280;51514;52.206;5.114;2023-12-20T11:52:29;101424.34;;;11.64;74.71
64886;BME280;51514;52.206;5.114;2023-12-20T11:54:54;101423.09;;;11.58;75.00
64886;BME280;51514;52.206;5.114;2023-12-20T11:57:20;101425.56;;;11.69;74.55
64886;BME280;51514;52.206;5.114;2023-12-20T11:59:45;101429.47;;;11.67;74.53
64886;BME280;51514;52.206;5.114;2023-12-20T12:02:11;101416.25;;;11.64;74.92
64886;BME280;51514;52.206;5.114;2023-12-20T12:04:37;101407.84;;;11.67;74.73
64886;BME280;51514;52.206;5.114;2023-12-20T12:07:02;101422.34;;;11.66;75.34
64886;BME280;51514;52.206;5.114;2023-12-20T12:09:28;101428.91;;;11.63;75.18
64886;BME280;51514;52.206;5.114;2023-12-20T12:11:53;101423.94;;;11.59;75.33
64886;BME280;51514;52.206;5.114;2023-12-20T12:14:19;101418.53;;;11.59;75.49
64886;BME280;51514;52.206;5.114;2023-12-20T12:16:45;101423.00;;;11.50;75.06
64886;BME280;51514;52.206;5.114;2023-12-20T12:19:21;101426.41;;;11.52;75.62
64886;BME280;51514;52.206;5.114;2023-12-20T12:21:47;101430.50;;;11.56;75.55
64886;BME280;51514;52.206;5.114;2023-12-20T12:24:12;101411.44;;;11.58;75.26
64886;BME280;51514;52.206;5.114;2023-12-20T12:26:38;101408.44;;;11.61;75.86
64886;BME280;51514;52.206;5.114;2023-12-20T12:29:03;101406.88;;;11.58;76.15
64886;BME280;51514;52.206;5.114;2023-12-20T12:31:28;101387.81;;;11.60;76.12
64886;BME280;51514;52.206;5.114;2023-12-20T12:33:55;101375.78;;;11.54;76.36
64886;BME280;51514;52.206;5.114;2023-12-20T12:36:21;101381.72;;;11.58;76.39
64886;BME280;51514;52.206;5.114;2023-12-20T12:38:46;101380.63;;;11.51;76.32
64886;BME280;51514;52.206;5.114;2023-12-20T12:41:15;101381.50;;;11.51;76.17
64886;BME280;51514;52.206;5.114;2023-12-20T12:43:41;101390.75;;;11.49;76.59
64886;BME280;51514;52.206;5.114;2023-12-20T12:46:06;101387.94;;;11.41;76.64
64886;BME280;51514;52.206;5.114;2023-12-20T12:48:32;101388.81;;;11.41;76.09
64886;BME280;51514;52.206;5.114;2023-12-20T12:50:58;101391.28;;;11.34;76.05
64886;BME280;51514;52.206;5.114;2023-12-20T12:53:27;101389.25;;;11.37;76.56
64886;BME280;51514;52.206;5.114;2023-12-20T12:55:53;101378.75;;;11.33;76.50